Time;durP1;ratioP1;P1;durP2;ratioP2;P2;SDS_P1;SDS_P2;PMS_P1;PMS_P2;Temp;Humidity;BMP_temperature;BMP_pressure;BME280_temperature;BME280_humidity;BME280_pressure;Samples;Min_cycle;Max_cycle;Signal;HPM_P1;HPM_P2
2022/10/25 00:01:27;;;;;;;12.30;7.30;;;13.10;99.90;;;;;;5030611;28;20387;-74
2022/10/25 00:03:53;;;;;;;12.40;8.07;;;13.20;99.90;;;;;;5020085;28;20443;-74
2022/10/25 00:06:19;;;;;;;11.32;8.63;;;13.10;99.90;;;;;;5004063;28;20056;-75
2022/10/25 00:08:45;;;;;;;12.30;7.63;;;13.10;99.90;;;;;;5030628;28;20049;-74
2022/10/25 00:11:18;;;;;;;13.30;8.02;;;13.20;99.90;;;;;;5025518;28;20050;-74
2022/10/25 00:13:44;;;;;;;13.27;8.90;;;13.20;99.90;;;;;;5028571;28;20038;-75
2022/10/25 00:16:14;;;;;;;14.43;8.73;;;13.20;99.90;;;;;;5021585;28;20053;-75
2022/10/25 00:18:40;;;;;;;11.73;8.10;;;13.20;99.90;;;;;;5030546;28;20053;-75
2022/10/25 00:21:06;;;;;;;10.85;8.05;;;13.10;99.90;;;;;;5026404;28;20054;-74
2022/10/25 00:23:31;;;;;;;12.38;8.30;;;13.10;99.90;;;;;;5013157;28;20049;-75
2022/10/25 00:26:02;;;;;;;12.32;9.35;;;13.00;99.90;;;;;;5024368;28;20050;-75
2022/10/25 00:28:28;;;;;;;11.82;8.52;;;13.00;99.90;;;;;;5030758;28;20061;-74
2022/10/25 00:31:05;;;;;;;12.38;8.48;;;12.90;99.90;;;;;;5012239;28;20137;-77
2022/10/25 00:33:31;;;;;;;;;;;12.90;99.90;;;;;;5030260;28;20510;-75
2022/10/25 00:36:06;;;;;;;14.15;8.48;;;12.90;99.90;;;;;;5013270;28;20289;-74
2022/10/25 00:38:32;;;;;;;10.00;7.55;;;12.90;99.90;;;;;;5030969;28;20456;-76
2022/10/25 00:40:59;;;;;;;11.02;7.50;;;12.90;99.90;;;;;;5030569;28;20046;-75
2022/10/25 00:43:46;;;;;;;10.85;7.85;;;12.90;99.90;;;;;;5030381;28;20053;-75
2022/10/25 00:46:22;;;;;;;13.18;7.95;;;12.90;99.90;;;;;;5027360;28;20050;-74
2022/10/25 00:49:14;;;;;;;14.05;7.78;;;12.80;99.90;;;;;;5025908;28;20129;-75
2022/10/25 00:51:51;;;;;;;12.50;7.25;;;12.80;99.90;;;;;;5013083;28;20076;-75
2022/10/25 00:54:21;;;;;;;11.43;7.60;;;12.70;99.90;;;;;;5012798;28;20132;-74
2022/10/25 00:56:50;;;;;;;11.98;7.97;;;12.70;99.90;;;;;;5011287;28;20049;-75
2022/10/25 00:59:19;;;;;;;10.68;7.88;;;12.60;99.90;;;;;;5011546;28;20545;-74
2022/10/25 01:01:46;;;;;;;11.32;7.60;;;12.60;99.90;;;;;;5028092;28;20058;-75
2022/10/25 01:04:15;;;;;;;13.85;8.90;;;12.60;99.90;;;;;;5023392;28;20065;-74
2022/10/25 01:06:50;;;;;;;11.40;7.10;;;12.70;99.90;;;;;;5016031;28;20506;-75
2022/10/25 01:09:22;;;;;;;11.60;7.80;;;12.70;99.90;;;;;;5030541;28;20041;-76
2022/10/25 01:11:48;;;;;;;11.73;8.00;;;12.80;99.90;;;;;;5021219;28;20506;-75
2022/10/25 01:14:15;;;;;;;11.07;7.05;;;12.80;99.90;;;;;;5022827;28;20088;-76
2022/10/25 01:16:59;;;;;;;10.38;7.60;;;12.80;99.90;;;;;;5025966;28;20582;-75
2022/10/25 01:19:47;;;;;;;10.73;6.78;;;12.70;99.90;;;;;;5030348;28;20132;-76
2022/10/25 01:22:44;;;;;;;12.07;7.85;;;12.80;99.90;;;;;;5030593;28;20045;-76
2022/10/25 01:25:33;;;;;;;10.23;7.78;;;12.80;99.90;;;;;;5024240;28;20045;-76
2022/10/25 01:28:30;;;;;;;9.20;7.10;;;12.80;99.90;;;;;;5004532;28;20049;-77
2022/10/25 01:30:59;;;;;;;10.00;7.07;;;12.90;99.90;;;;;;5021720;28;20049;-76
2022/10/25 01:33:35;;;;;;;9.82;6.90;;;12.80;99.90;;;;;;5033733;28;20616;-77
2022/10/25 01:36:29;;;;;;;11.43;7.03;;;12.80;99.90;;;;;;5015566;28;20057;-75
2022/10/25 01:39:24;;;;;;;9.77;6.20;;;12.80;99.90;;;;;;5016405;28;20486;-75
2022/10/25 01:42:25;;;;;;;10.88;6.60;;;12.80;99.90;;;;;;5033970;28;20064;-76
2022/10/25 01:45:09;;;;;;;8.75;6.68;;;12.80;99.90;;;;;;5009735;28;20061;-75
2022/10/25 01:47:42;;;;;;;8.88;6.10;;;12.80;99.90;;;;;;5008373;28;20395;-76
2022/10/25 01:50:23;;;;;;;9.60;6.50;;;12.80;99.90;;;;;;5016062;28;20088;-76
2022/10/25 01:52:49;;;;;;;10.15;6.50;;;12.70;99.90;;;;;;5033664;28;20099;-75
2022/10/25 01:55:16;;;;;;;11.05;6.30;;;12.70;99.90;;;;;;5033618;28;20378;-76
2022/10/25 01:58:07;;;;;;;9.32;6.20;;;12.70;99.90;;;;;;5033647;28;20053;-76
2022/10/25 02:01:04;;;;;;;8.02;5.90;;;12.60;99.90;;;;;;5006412;28;20592;-76
2022/10/25 02:03:33;;;;;;;;;;;12.60;99.90;;;;;;5026880;28;20097;-74
2022/10/25 02:06:26;;;;;;;9.90;5.63;;;12.50;99.90;;;;;;5032231;28;19931;-76
2022/10/25 02:09:01;;;;;;;11.88;6.32;;;12.50;99.90;;;;;;5021801;28;20116;-75
2022/10/25 02:11:31;;;;;;;9.82;6.13;;;12.50;99.90;;;;;;5023810;28;20045;-74
2022/10/25 02:14:31;;;;;;;8.07;5.50;;;12.50;99.90;;;;;;5029141;28;20085;-74
2022/10/25 02:17:06;;;;;;;8.52;6.05;;;12.50;99.90;;;;;;4995598;28;20061;-76
2022/10/25 02:19:45;;;;;;;10.25;6.53;;;12.40;99.90;;;;;;5002619;28;20150;-75
2022/10/25 02:22:12;;;;;;;8.75;5.90;;;12.40;99.90;;;;;;5030657;28;20460;-76
2022/10/25 02:24:41;;;;;;;8.48;5.95;;;12.40;99.90;;;;;;5026580;28;20042;-75
2022/10/25 02:27:09;;;;;;;7.82;5.90;;;12.30;99.90;;;;;;5013404;28;20046;-75
2022/10/25 02:29:36;;;;;;;11.43;6.78;;;12.40;99.90;;;;;;5032463;28;20048;-75
2022/10/25 02:32:06;;;;;;;10.82;6.43;;;12.40;99.90;;;;;;5030513;28;20065;-75
2022/10/25 02:34:32;;;;;;;13.45;6.10;;;12.50;99.90;;;;;;5032497;28;20049;-76
2022/10/25 02:36:59;;;;;;;8.77;6.43;;;12.50;99.90;;;;;;5021039;28;20045;-76
2022/10/25 02:39:28;;;;;;;8.57;5.88;;;12.50;99.90;;;;;;5012447;28;20054;-76
2022/10/25 02:41:53;;;;;;;10.68;6.60;;;12.50;99.90;;;;;;5018447;28;20052;-76
2022/10/25 02:44:19;;;;;;;10.50;6.88;;;12.60;99.90;;;;;;5015170;28;20460;-75
2022/10/25 02:46:45;;;;;;;9.98;6.72;;;12.60;99.90;;;;;;5025460;28;20053;-75
2022/10/25 02:49:11;;;;;;;11.35;6.85;;;12.70;99.90;;;;;;5032260;28;20053;-75
2022/10/25 02:51:36;;;;;;;11.50;7.07;;;12.70;99.90;;;;;;5032740;28;20049;-75
2022/10/25 02:54:02;;;;;;;12.50;7.38;;;12.70;99.90;;;;;;5032902;28;20402;-75
2022/10/25 02:56:28;;;;;;;13.18;6.90;;;12.80;99.90;;;;;;5032215;28;20045;-76
2022/10/25 02:58:57;;;;;;;11.10;7.15;;;12.80;99.90;;;;;;5032025;28;20045;-76
2022/10/25 03:01:24;;;;;;;13.45;7.78;;;12.90;99.90;;;;;;5032252;28;20049;-75
2022/10/25 03:03:50;;;;;;;10.60;7.50;;;12.90;99.90;;;;;;5031940;28;20053;-76
2022/10/25 03:06:16;;;;;;;11.20;7.68;;;12.90;99.90;;;;;;5031957;28;20096;-77
2022/10/25 03:08:43;;;;;;;9.90;7.22;;;13.00;99.90;;;;;;5032427;28;20080;-76
2022/10/25 03:11:10;;;;;;;11.10;7.95;;;13.00;99.90;;;;;;5032277;28;20490;-75
2022/10/25 03:13:36;;;;;;;10.32;7.28;;;13.00;99.90;;;;;;4995104;28;20054;-75
2022/10/25 03:16:02;;;;;;;9.80;6.68;;;13.00;99.90;;;;;;5028521;28;20068;-75
2022/10/25 03:18:28;;;;;;;10.05;7.05;;;13.00;99.90;;;;;;5031636;28;20111;-75
2022/10/25 03:20:58;;;;;;;11.15;7.25;;;13.00;99.90;;;;;;5032122;28;20057;-75
2022/10/25 03:23:24;;;;;;;12.30;7.75;;;13.00;99.90;;;;;;5031560;28;20041;-74
2022/10/25 03:25:54;;;;;;;9.88;6.78;;;13.10;99.90;;;;;;5023871;28;20081;-76
2022/10/25 03:28:20;;;;;;;11.82;6.90;;;13.10;99.90;;;;;;5021177;28;20088;-75
2022/10/25 03:30:46;;;;;;;11.57;7.32;;;13.00;99.90;;;;;;5022798;28;20688;-75
2022/10/25 03:33:12;;;;;;;10.68;6.95;;;13.00;99.90;;;;;;5021281;28;20120;-75
2022/10/25 03:35:37;;;;;;;9.18;6.45;;;13.10;99.90;;;;;;5004310;28;20049;-76
2022/10/25 03:38:03;;;;;;;11.65;7.15;;;13.20;99.90;;;;;;5030061;28;20049;-75
2022/10/25 03:40:29;;;;;;;10.85;6.68;;;13.20;99.90;;;;;;5031721;28;20152;-74
2022/10/25 03:42:55;;;;;;;10.88;5.65;;;13.20;99.90;;;;;;5031312;28;20052;-75
2022/10/25 03:45:20;;;;;;;12.35;6.05;;;13.20;99.90;;;;;;5031248;28;20037;-74
2022/10/25 03:47:46;;;;;;;11.48;6.70;;;13.20;99.90;;;;;;5030917;28;20119;-74
2022/10/25 03:50:12;;;;;;;11.88;7.15;;;13.20;99.90;;;;;;5031521;28;20041;-76
2022/10/25 03:52:38;;;;;;;11.98;6.93;;;13.10;99.90;;;;;;5031506;28;20136;-75
2022/10/25 03:55:05;;;;;;;12.98;7.40;;;13.20;99.90;;;;;;5023265;28;20136;-75
2022/10/25 03:57:31;;;;;;;11.80;7.82;;;13.20;99.90;;;;;;5014084;28;20080;-76
2022/10/25 03:59:58;;;;;;;10.05;7.38;;;13.10;99.90;;;;;;5013598;28;20486;-76
2022/10/25 04:02:25;;;;;;;12.18;6.68;;;13.10;99.90;;;;;;5017746;28;20055;-75
2022/10/25 04:04:51;;;;;;;10.70;7.32;;;13.10;99.90;;;;;;5030854;28;20054;-74
2022/10/25 04:07:17;;;;;;;11.73;6.47;;;13.10;99.90;;;;;;5031008;28;20050;-75
2022/10/25 04:09:42;;;;;;;13.05;7.28;;;13.10;99.90;;;;;;5031324;28;20050;-74
2022/10/25 04:12:08;;;;;;;10.32;6.53;;;13.00;99.90;;;;;;5009840;28;20052;-75
2022/10/25 04:14:34;;;;;;;10.93;6.97;;;13.00;99.90;;;;;;5027200;28;20053;-74
2022/10/25 04:16:59;;;;;;;11.32;6.88;;;12.90;99.90;;;;;;5031018;28;20064;-74
2022/10/25 04:19:25;;;;;;;11.07;7.22;;;12.90;99.90;;;;;;5030975;28;20123;-75
2022/10/25 04:21:51;;;;;;;11.93;7.15;;;12.90;99.90;;;;;;5015422;28;20050;-74
2022/10/25 04:24:16;;;;;;;10.10;6.80;;;12.90;99.90;;;;;;5013639;28;20048;-74
2022/10/25 04:26:42;;;;;;;10.20;7.07;;;12.90;99.90;;;;;;4996987;28;20049;-74
2022/10/25 04:29:09;;;;;;;11.23;6.63;;;12.90;99.90;;;;;;5030535;28;20123;-75
2022/10/25 04:31:35;;;;;;;11.50;7.53;;;13.00;99.90;;;;;;5020090;28;20131;-74
2022/10/25 04:34:01;;;;;;;11.38;7.55;;;13.00;99.90;;;;;;5027505;28;20572;-74
2022/10/25 04:36:28;;;;;;;10.13;6.80;;;13.00;99.90;;;;;;5012427;28;20418;-74
2022/10/25 04:38:55;;;;;;;11.98;7.75;;;13.00;99.90;;;;;;5031047;28;20049;-73
2022/10/25 04:41:20;;;;;;;10.98;6.35;;;13.00;99.90;;;;;;5030873;28;20107;-73
2022/10/25 04:43:47;;;;;;;13.75;6.95;;;13.00;99.90;;;;;;5030148;28;20045;-75
2022/10/25 04:46:13;;;;;;;12.70;6.78;;;13.10;99.90;;;;;;5030370;28;20536;-73
2022/10/25 04:48:40;;;;;;;12.35;6.72;;;13.00;99.90;;;;;;5022543;28;20581;-74
2022/10/25 04:51:08;;;;;;;11.25;6.88;;;13.00;99.90;;;;;;5013040;28;20042;-75
2022/10/25 04:53:33;;;;;;;11.13;6.72;;;13.00;99.90;;;;;;5030749;28;20052;-73
2022/10/25 04:56:02;;;;;;;10.88;6.78;;;13.10;99.90;;;;;;5030862;28;20057;-75
2022/10/25 04:58:29;;;;;;;10.95;6.57;;;13.10;99.90;;;;;;5013192;28;20060;-75
2022/10/25 05:01:00;;;;;;;11.10;6.50;;;13.10;99.90;;;;;;5022383;28;20050;-75
2022/10/25 05:03:26;;;;;;;12.55;6.70;;;13.10;99.90;;;;;;5033242;28;20085;-74
2022/10/25 05:05:52;;;;;;;11.20;6.75;;;13.10;99.90;;;;;;5034184;28;20046;-76
2022/10/25 05:08:18;;;;;;;10.45;6.65;;;13.10;99.90;;;;;;5034398;28;20435;-76
2022/10/25 05:10:43;;;;;;;11.77;6.65;;;13.20;99.90;;;;;;5034512;28;20124;-74
2022/10/25 05:13:09;;;;;;;11.70;6.82;;;13.10;99.90;;;;;;5031443;28;20060;-74
2022/10/25 05:15:35;;;;;;;13.27;7.22;;;13.10;99.90;;;;;;5028184;28;20046;-75
2022/10/25 05:18:00;;;;;;;9.88;6.82;;;13.00;99.90;;;;;;5014567;28;20100;-74
2022/10/25 05:20:27;;;;;;;14.48;5.93;;;13.00;99.90;;;;;;5026463;28;20045;-74
2022/10/25 05:22:53;;;;;;;10.73;6.78;;;13.00;99.90;;;;;;5034508;28;20049;-74
2022/10/25 05:25:19;;;;;;;13.23;6.78;;;13.00;99.90;;;;;;5034065;28;20052;-74
2022/10/25 05:27:45;;;;;;;11.93;6.80;;;13.00;99.90;;;;;;5034024;28;20041;-75
2022/10/25 05:30:11;;;;;;;11.98;5.78;;;13.00;99.90;;;;;;4993478;28;20390;-74
2022/10/25 05:32:37;;;;;;;11.38;6.80;;;12.90;99.90;;;;;;5033757;28;20081;-73
2022/10/25 05:35:03;;;;;;;11.30;6.07;;;12.80;99.90;;;;;;5033158;28;20045;-75
2022/10/25 05:37:28;;;;;;;10.48;6.55;;;12.80;99.90;;;;;;5031405;28;20042;-74
2022/10/25 05:39:54;;;;;;;10.02;6.97;;;12.80;99.90;;;;;;5031089;28;20493;-75
2022/10/25 05:42:20;;;;;;;11.90;7.32;;;12.80;99.90;;;;;;5023043;28;20052;-74
2022/10/25 05:44:46;;;;;;;11.38;6.63;;;12.80;99.90;;;;;;5033537;28;20069;-75
2022/10/25 05:47:11;;;;;;;11.57;6.38;;;12.80;99.90;;;;;;5030933;28;20049;-75
2022/10/25 05:49:39;;;;;;;11.48;6.75;;;12.80;99.90;;;;;;5016127;28;20049;-75
2022/10/25 05:52:09;;;;;;;9.85;7.18;;;12.80;99.90;;;;;;5033846;28;20049;-75
2022/10/25 05:54:34;;;;;;;9.57;6.15;;;12.80;99.90;;;;;;5033595;28;20045;-74
2022/10/25 05:57:00;;;;;;;10.30;6.43;;;12.70;99.90;;;;;;5033249;28;20100;-77
2022/10/25 05:59:26;;;;;;;12.13;6.40;;;12.70;99.90;;;;;;5033270;28;20049;-75
2022/10/25 06:01:51;;;;;;;11.07;6.28;;;12.80;99.90;;;;;;5033453;28;20513;-75
2022/10/25 06:04:17;;;;;;;9.48;5.57;;;12.80;99.90;;;;;;5032602;28;20046;-75
2022/10/25 06:06:45;;;;;;;11.98;5.82;;;12.70;99.90;;;;;;5015573;28;20081;-74
2022/10/25 06:09:11;;;;;;;10.55;6.00;;;12.80;99.90;;;;;;5007696;28;20496;-75
2022/10/25 06:11:38;;;;;;;11.40;5.75;;;12.80;99.90;;;;;;5022114;28;20176;-74
2022/10/25 06:14:04;;;;;;;9.35;5.68;;;12.70;99.90;;;;;;5020600;28;20096;-65
2022/10/25 06:16:30;;;;;;;8.65;5.32;;;12.70;99.90;;;;;;5029449;28;20859;-65
2022/10/25 06:18:56;;;;;;;9.45;5.20;;;12.70;99.90;;;;;;5015241;28;20042;-65
2022/10/25 06:21:24;;;;;;;10.88;5.10;;;12.70;99.90;;;;;;5032139;28;20174;-65
2022/10/25 06:23:50;;;;;;;9.25;4.75;;;12.60;99.90;;;;;;5032797;28;20493;-65
2022/10/25 06:26:27;;;;;;;10.32;5.38;;;12.60;99.90;;;;;;5013909;28;20045;-65
2022/10/25 06:28:56;;;;;;;9.63;5.50;;;12.70;99.90;;;;;;5008887;28;20053;-67
2022/10/25 06:31:22;;;;;;;7.57;4.97;;;12.70;99.90;;;;;;5022682;28;20057;-66
2022/10/25 06:33:48;;;;;;;10.35;5.22;;;12.70;99.90;;;;;;5032761;28;20498;-66
2022/10/25 06:36:16;;;;;;;13.27;5.60;;;12.70;99.90;;;;;;5032311;28;20045;-65
2022/10/25 06:38:43;;;;;;;11.95;5.30;;;12.70;99.90;;;;;;5032630;28;20046;-66
2022/10/25 06:41:14;;;;;;;12.25;5.82;;;12.70;99.90;;;;;;5032366;28;20041;-66
2022/10/25 06:43:40;;;;;;;9.68;4.80;;;12.70;99.90;;;;;;5032535;28;20054;-65
2022/10/25 06:46:13;;;;;;;11.32;4.57;;;12.70;99.90;;;;;;5032372;28;20418;-66
2022/10/25 06:48:39;;;;;;;12.32;5.32;;;12.70;99.90;;;;;;5032822;28;20045;-65
2022/10/25 06:51:08;;;;;;;9.57;5.28;;;12.70;99.90;;;;;;5032867;28;20056;-66
2022/10/25 06:53:35;;;;;;;12.27;6.13;;;12.80;99.90;;;;;;5032290;28;20398;-66
2022/10/25 06:56:09;;;;;;;11.23;5.05;;;12.80;99.90;;;;;;5032145;28;20052;-66
2022/10/25 06:58:36;;;;;;;10.15;5.18;;;12.80;99.90;;;;;;5032375;28;20132;-65
2022/10/25 07:01:04;;;;;;;8.63;5.28;;;12.80;99.90;;;;;;5024485;28;20045;-66
2022/10/25 07:03:34;;;;;;;9.02;5.15;;;12.90;99.90;;;;;;5020505;28;20077;-65
2022/10/25 07:06:08;;;;;;;11.05;5.57;;;12.80;99.90;;;;;;5032032;28;20049;-66
2022/10/25 07:08:34;;;;;;;11.45;5.55;;;12.80;99.90;;;;;;5015339;28;20471;-66
2022/10/25 07:11:01;;;;;;;11.05;5.80;;;12.80;99.90;;;;;;5015709;28;20049;-66
2022/10/25 07:13:27;;;;;;;11.73;5.40;;;12.80;99.90;;;;;;5023362;28;20071;-66
2022/10/25 07:15:52;;;;;;;10.45;5.75;;;12.80;99.90;;;;;;5015749;28;20482;-66
2022/10/25 07:18:18;;;;;;;11.30;6.10;;;12.80;99.90;;;;;;5014870;28;20045;-66
2022/10/25 07:20:47;;;;;;;10.30;5.90;;;12.80;99.90;;;;;;5025488;28;20124;-66
2022/10/25 07:23:14;;;;;;;9.43;5.28;;;12.80;99.90;;;;;;5021712;28;20085;-67
2022/10/25 07:25:40;;;;;;;11.55;5.57;;;12.90;99.90;;;;;;5030757;28;20057;-65
2022/10/25 07:28:06;;;;;;;8.82;5.45;;;12.90;99.90;;;;;;5012108;28;20601;-65
2022/10/25 07:30:32;;;;;;;9.25;5.60;;;12.90;99.90;;;;;;5028822;28;20072;-65
2022/10/25 07:32:57;;;;;;;10.82;5.22;;;12.90;99.90;;;;;;5017506;28;20057;-65
2022/10/25 07:35:23;;;;;;;10.18;5.32;;;12.90;99.90;;;;;;5023173;28;20079;-66
2022/10/25 07:37:49;;;;;;;12.75;5.75;;;12.90;99.90;;;;;;5030864;28;20045;-65
2022/10/25 07:40:14;;;;;;;9.82;5.00;;;13.00;99.90;;;;;;5030204;28;20132;-65
2022/10/25 07:42:40;;;;;;;13.57;5.80;;;13.00;99.90;;;;;;5031762;28;20081;-65
2022/10/25 07:45:06;;;;;;;9.40;5.25;;;13.10;99.90;;;;;;5029364;28;20045;-65
2022/10/25 07:47:32;;;;;;;8.48;5.28;;;13.10;99.90;;;;;;5024366;28;20088;-65
2022/10/25 07:49:59;;;;;;;10.35;5.53;;;13.20;99.90;;;;;;5030497;28;20494;-65
2022/10/25 07:52:25;;;;;;;9.20;5.13;;;13.20;99.90;;;;;;5014450;28;20060;-66
2022/10/25 07:54:50;;;;;;;9.25;5.72;;;13.30;99.90;;;;;;5031235;28;20053;-65
2022/10/25 07:57:16;;;;;;;8.52;5.10;;;13.30;99.90;;;;;;5013415;28;20099;-65
2022/10/25 07:59:42;;;;;;;9.25;5.45;;;13.40;99.90;;;;;;5012910;28;20049;-66
2022/10/25 08:02:11;;;;;;;10.63;5.40;;;13.40;99.90;;;;;;5013332;28;20056;-66
2022/10/25 08:04:37;;;;;;;8.98;5.53;;;13.40;99.90;;;;;;5030369;28;20041;-65
2022/10/25 08:07:02;;;;;;;12.88;5.88;;;13.40;99.90;;;;;;5030988;28;20049;-65
2022/10/25 08:09:28;;;;;;;11.82;5.40;;;13.40;99.90;;;;;;5006794;28;20038;-65
2022/10/25 08:11:54;;;;;;;13.25;6.18;;;13.50;99.90;;;;;;5030639;28;20130;-66
2022/10/25 08:14:20;;;;;;;10.30;5.97;;;13.60;99.90;;;;;;5026617;28;20409;-65
2022/10/25 08:16:45;;;;;;;11.15;5.65;;;13.70;99.90;;;;;;5026802;28;20106;-66
2022/10/25 08:19:11;;;;;;;12.30;6.28;;;13.80;99.90;;;;;;5030677;28;20060;-66
2022/10/25 08:21:37;;;;;;;9.85;5.88;;;13.80;99.90;;;;;;5030612;28;20565;-66
2022/10/25 08:24:02;;;;;;;10.73;6.00;;;13.80;99.90;;;;;;5030135;28;20402;-66
2022/10/25 08:26:28;;;;;;;12.52;6.00;;;13.80;99.90;;;;;;5030860;28;20056;-65
2022/10/25 08:28:54;;;;;;;11.10;6.07;;;13.90;99.90;;;;;;5030184;28;20080;-67
2022/10/25 08:31:20;;;;;;;11.13;5.90;;;13.80;99.90;;;;;;5010605;28;20057;-66
2022/10/25 08:33:46;;;;;;;11.25;6.07;;;13.90;99.90;;;;;;5025542;28;20041;-66
2022/10/25 08:36:11;;;;;;;9.57;6.00;;;13.90;99.90;;;;;;5029391;28;20048;-65
2022/10/25 08:38:37;;;;;;;13.20;5.13;;;14.00;99.90;;;;;;5030744;28;20123;-65
2022/10/25 08:41:17;;;;;;;8.98;5.30;;;14.10;99.90;;;;;;5012896;28;20052;-65
2022/10/25 08:44:10;;;;;;;13.57;6.07;;;14.00;99.90;;;;;;5030802;28;20056;-65
2022/10/25 08:46:51;;;;;;;9.93;5.75;;;14.10;99.90;;;;;;5030664;28;20037;-66
2022/10/25 08:49:32;;;;;;;10.65;5.50;;;14.10;99.90;;;;;;5028192;28;20049;-65
2022/10/25 08:52:00;;;;;;;10.82;6.18;;;14.10;99.90;;;;;;5030548;28;20045;-66
2022/10/25 08:54:39;;;;;;;8.88;6.20;;;14.10;99.90;;;;;;5030571;28;20399;-66
2022/10/25 08:57:14;;;;;;;8.65;6.07;;;14.10;99.90;;;;;;5014006;28;20050;-65
2022/10/25 08:59:42;;;;;;;11.15;6.47;;;14.20;99.90;;;;;;5024814;28;20403;-65
2022/10/25 09:02:22;;;;;;;10.52;6.35;;;14.20;99.90;;;;;;5030171;28;20095;-65
2022/10/25 09:04:48;;;;;;;10.68;6.22;;;14.30;99.90;;;;;;5023237;28;20049;-66
2022/10/25 09:07:44;;;;;;;11.50;6.85;;;14.20;99.90;;;;;;5027088;28;20398;-66
2022/10/25 09:10:17;;;;;;;10.48;5.82;;;14.30;99.90;;;;;;5029094;28;20493;-66
2022/10/25 09:12:51;;;;;;;9.57;6.32;;;14.40;99.90;;;;;;5028040;28;20042;-66
2022/10/25 09:15:24;;;;;;;12.73;6.60;;;14.50;99.90;;;;;;5023965;28;20059;-66
2022/10/25 09:17:52;;;;;;;8.82;6.28;;;14.60;99.90;;;;;;5030282;28;20053;-66
2022/10/25 09:20:24;;;;;;;9.80;5.35;;;14.70;99.90;;;;;;5029484;28;20076;-66
2022/10/25 09:23:12;;;;;;;11.63;6.22;;;14.80;99.90;;;;;;5030416;28;20064;-66
2022/10/25 09:26:05;;;;;;;8.32;5.07;;;14.80;99.90;;;;;;5016003;28;20045;-66
2022/10/25 09:28:49;;;;;;;8.82;4.75;;;14.90;99.90;;;;;;5015106;28;20616;-66
2022/10/25 09:31:23;;;;;;;10.60;4.60;;;15.00;99.90;;;;;;5029615;28;20093;-66
2022/10/25 09:33:55;;;;;;;10.10;5.30;;;14.90;99.90;;;;;;5029600;28;20490;-66
2022/10/25 09:36:21;;;;;;;7.40;4.55;;;14.90;99.90;;;;;;5029806;28;20124;-65
2022/10/25 09:38:53;;;;;;;8.05;4.60;;;14.90;99.90;;;;;;5030057;28;20124;-66
2022/10/25 09:41:34;;;;;;;9.68;4.40;;;14.90;99.90;;;;;;5029053;28;20099;-66
2022/10/25 09:44:06;;;;;;;6.78;4.72;;;14.80;99.90;;;;;;5029750;28;20472;-66
2022/10/25 09:46:39;;;;;;;7.05;4.15;;;14.80;99.90;;;;;;5021470;28;20537;-66
2022/10/25 09:49:36;;;;;;;6.80;4.50;;;14.80;99.90;;;;;;5032936;28;20129;-66
2022/10/25 09:52:13;;;;;;;8.23;3.67;;;15.00;99.90;;;;;;5022752;28;20045;-67
2022/10/25 09:54:48;;;;;;;7.88;3.63;;;15.20;99.90;;;;;;5015694;28;20072;-66
2022/10/25 09:57:13;;;;;;;8.40;3.35;;;15.50;99.90;;;;;;5033273;28;20441;-68
2022/10/25 09:59:39;;;;;;;7.47;3.60;;;15.40;99.90;;;;;;5033065;28;20136;-65
2022/10/25 10:02:08;;;;;;;6.32;3.20;;;15.40;99.90;;;;;;5023425;28;20045;-70
2022/10/25 10:04:38;;;;;;;4.95;2.70;;;15.30;99.90;;;;;;5019600;28;20416;-69
2022/10/25 10:07:21;;;;;;;6.43;3.05;;;15.20;99.90;;;;;;5013356;28;20096;-66
2022/10/25 10:09:50;;;;;;;5.25;3.00;;;15.30;99.90;;;;;;4995030;28;20077;-66
2022/10/25 10:12:22;;;;;;;6.53;2.97;;;15.40;99.90;;;;;;5031307;28;20060;-66
2022/10/25 10:15:05;;;;;;;5.68;2.72;;;15.50;99.90;;;;;;5031830;28;20053;-66
2022/10/25 10:17:31;;;;;;;7.80;3.10;;;15.50;99.90;;;;;;5004732;28;20436;-67
2022/10/25 10:20:17;;;;;;;6.25;2.60;;;15.50;99.90;;;;;;5028830;28;20041;-66
2022/10/25 10:22:51;;;;;;;6.97;2.75;;;15.40;99.90;;;;;;5019749;28;20050;-67
2022/10/25 10:25:21;;;;;;;4.28;3.17;;;15.40;99.90;;;;;;5025626;28;20128;-69
2022/10/25 10:27:49;;;;;;;4.47;2.78;;;15.40;99.90;;;;;;5032472;28;20041;-67
2022/10/25 10:30:37;;;;;;;5.28;2.75;;;15.40;99.90;;;;;;5023846;28;20450;-68
2022/10/25 10:33:05;;;;;;;5.80;2.60;;;15.40;99.90;;;;;;5010870;28;20075;-67
2022/10/25 10:35:33;;;;;;;5.88;2.75;;;15.30;99.90;;;;;;5011446;28;20057;-67
2022/10/25 10:38:21;;;;;;;6.82;2.45;;;15.30;99.90;;;;;;5011917;28;20544;-67
2022/10/25 10:40:48;;;;;;;6.43;2.30;;;15.20;99.90;;;;;;5016419;28;20045;-66
2022/10/25 10:43:29;;;;;;;6.38;2.42;;;15.20;99.90;;;;;;5017062;28;20037;-66
2022/10/25 10:46:04;;;;;;;5.40;2.42;;;15.10;99.90;;;;;;5016643;28;20596;-66
2022/10/25 10:48:36;;;;;;;4.07;2.40;;;15.20;99.90;;;;;;5023011;28;20068;-66
2022/10/25 10:51:02;;;;;;;6.82;3.08;;;15.30;99.90;;;;;;5032263;28;20131;-65
2022/10/25 10:53:31;;;;;;;4.05;2.38;;;15.30;99.90;;;;;;5031316;28;20041;-67
2022/10/25 10:56:04;;;;;;;6.10;2.50;;;15.50;99.90;;;;;;5014333;28;20053;-66
2022/10/25 10:58:38;;;;;;;4.05;1.75;;;15.70;99.90;;;;;;5001727;28;20045;-67
2022/10/25 11:01:27;;;;;;;5.40;2.20;;;15.70;99.90;;;;;;5003126;28;20491;-65
2022/10/25 11:03:56;;;;;;;6.82;2.50;;;15.70;99.90;;;;;;5023664;28;20139;-66
2022/10/25 11:06:34;;;;;;;4.57;2.20;;;15.50;99.90;;;;;;5031022;28;20049;-66
2022/10/25 11:09:11;;;;;;;3.53;2.60;;;15.40;99.90;;;;;;5026928;28;20083;-66
2022/10/25 11:11:40;;;;;;;3.20;1.67;;;15.40;99.90;;;;;;5006438;28;20042;-66
2022/10/25 11:14:24;;;;;;;6.25;2.20;;;15.30;99.90;;;;;;5023858;28;20042;-66
2022/10/25 11:17:11;;;;;;;6.28;2.10;;;15.40;99.90;;;;;;5031523;28;20068;-66
2022/10/25 11:19:53;;;;;;;2.90;1.80;;;15.40;99.90;;;;;;5009621;28;20049;-67
2022/10/25 11:22:28;;;;;;;5.80;2.33;;;15.50;99.90;;;;;;5018005;28;20124;-67
2022/10/25 11:25:12;;;;;;;5.93;1.70;;;15.60;99.90;;;;;;5021781;28;20076;-67
2022/10/25 11:27:49;;;;;;;5.30;2.13;;;15.50;99.90;;;;;;5029145;28;20049;-68
2022/10/25 11:30:22;;;;;;;4.28;2.28;;;15.50;99.90;;;;;;5011804;28;20123;-67
2022/10/25 11:33:22;;;;;;;5.07;2.15;;;15.40;99.90;;;;;;5011263;28;20202;-67
2022/10/25 11:35:58;;;;;;;3.80;1.83;;;15.40;99.90;;;;;;5011751;28;20131;-67
2022/10/25 11:38:23;;;;;;;4.50;1.55;;;15.40;99.90;;;;;;5011954;28;20128;-67
2022/10/25 11:41:13;;;;;;;3.17;1.83;;;15.50;99.90;;;;;;5011277;28;20152;-66
2022/10/25 11:44:16;;;;;;;3.67;2.17;;;15.60;99.90;;;;;;5011988;28;20107;-67
2022/10/25 11:47:10;;;;;;;4.15;1.90;;;15.70;99.90;;;;;;5011913;28;20050;-67
2022/10/25 11:49:47;;;;;;;4.05;1.98;;;15.90;99.90;;;;;;5011501;28;20057;-67
2022/10/25 11:52:36;;;;;;;3.88;1.77;;;15.90;99.90;;;;;;5011899;28;20053;-67
2022/10/25 11:55:23;;;;;;;5.05;1.80;;;16.00;99.90;;;;;;5011443;28;20049;-67
2022/10/25 11:57:57;;;;;;;;;;;15.90;99.90;;;;;;5012089;28;20057;-67
2022/10/25 12:00:48;;;;;;;4.05;2.08;;;15.80;99.90;;;;;;5011371;28;20384;-67
2022/10/25 12:03:39;;;;;;;2.80;1.77;;;15.80;99.90;;;;;;5007161;28;20057;-67
2022/10/25 12:06:17;;;;;;;4.78;1.52;;;15.60;99.90;;;;;;5010959;28;20049;-67
2022/10/25 12:08:57;;;;;;;5.10;2.13;;;15.50;99.90;;;;;;5011548;28;20053;-68
2022/10/25 12:11:32;;;;;;;3.97;1.73;;;15.70;99.90;;;;;;5015113;28;20375;-67
2022/10/25 12:14:03;;;;;;;4.93;1.88;;;15.80;99.90;;;;;;5019776;28;20042;-68
2022/10/25 12:16:30;;;;;;;4.43;1.90;;;16.00;99.90;;;;;;5011196;28;20344;-67
2022/10/25 12:19:18;;;;;;;4.30;2.00;;;15.90;99.90;;;;;;5010382;28;20046;-67
2022/10/25 12:21:52;;;;;;;4.50;2.00;;;15.90;99.90;;;;;;5010018;28;20100;-68
2022/10/25 12:24:40;;;;;;;3.55;1.85;;;15.90;99.90;;;;;;5008315;28;20128;-67
2022/10/25 12:27:08;;;;;;;4.93;2.03;;;16.00;99.90;;;;;;5011273;28;20059;-68
2022/10/25 12:29:49;;;;;;;4.75;2.30;;;15.90;99.90;;;;;;4993092;28;20369;-67
2022/10/25 12:32:26;;;;;;;2.60;1.70;;;15.80;99.90;;;;;;5009951;28;20065;-67
2022/10/25 12:34:53;;;;;;;4.45;1.80;;;15.90;99.90;;;;;;5010749;28;20184;-67
2022/10/25 12:37:42;;;;;;;3.28;1.60;;;15.80;99.90;;;;;;5011030;28;20064;-67
2022/10/25 12:40:15;;;;;;;5.25;1.90;;;15.80;99.90;;;;;;5010407;28;20095;-67
2022/10/25 12:42:46;;;;;;;3.60;1.88;;;15.80;99.90;;;;;;5010885;28;20058;-67
2022/10/25 12:45:23;;;;;;;4.63;1.98;;;15.70;99.90;;;;;;5010972;28;20058;-67
2022/10/25 12:48:21;;;;;;;4.38;1.80;;;15.60;99.90;;;;;;5010598;28;20200;-67
2022/10/25 12:50:46;;;;;;;4.13;2.15;;;15.50;99.90;;;;;;5010454;28;20554;-66
2022/10/25 12:53:15;;;;;;;2.95;1.70;;;15.40;99.90;;;;;;5010801;28;20084;-65
2022/10/25 12:56:08;;;;;;;5.25;1.88;;;15.50;99.90;;;;;;5009568;28;20069;-65
2022/10/25 12:58:43;;;;;;;5.25;2.10;;;15.60;99.90;;;;;;5009935;28;20046;-65
2022/10/25 13:01:14;;;;;;;4.57;1.85;;;15.70;99.90;;;;;;5009985;28;20125;-65
2022/10/25 13:04:12;;;;;;;4.10;2.50;;;15.80;99.90;;;;;;5010023;28;20589;-66
2022/10/25 13:06:42;;;;;;;3.40;2.22;;;15.80;99.90;;;;;;5010229;28;20064;-66